Time;durP1;ratioP1;P1;durP2;ratioP2;P2;SDS_P1;SDS_P2;PMS_P1;PMS_P2;Temp;Humidity;BMP_temperature;BMP_pressure;BME280_temperature;BME280_humidity;BME280_pressure;Samples;Min_cycle;Max_cycle;Signal;HPM_P1;HPM_P2
2021/10/01 00:01:14;;;;;;;;;;;;;;;-144.99;75.14;52450.13;5050142;28;20477;-64
2021/10/01 00:03:41;;;;;;;;;;;;;;;-144.99;75.31;52456.25;5049458;28;19978;-64
2021/10/01 00:06:08;;;;;;;;;;;;;;;-144.99;75.44;52476.63;5050092;28;19977;-62
2021/10/01 00:08:35;;;;;;;;;;;;;;;-144.99;76.30;52472.56;5050504;28;19993;-64
2021/10/01 00:11:02;;;;;;;;;;;;;;;-144.99;77.39;52488.84;5049621;28;20000;-64
2021/10/01 00:13:28;;;;;;;;;;;;;;;-144.99;78.36;52456.25;5050133;28;20378;-64
2021/10/01 00:15:55;;;;;;;;;;;;;;;-144.99;78.25;52468.47;5050151;28;19967;-63
2021/10/01 00:18:21;;;;;;;;;;;;;;;-144.99;78.40;52468.47;5049565;28;19993;-64
2021/10/01 00:20:48;;;;;;;;;;;;;;;-144.99;78.42;52460.31;5049563;28;20004;-60
2021/10/01 00:23:15;;;;;;;;;;;;;;;-144.99;78.79;52458.28;5049397;28;19978;-59
2021/10/01 00:25:42;;;;;;;;;;;;;;;-144.99;77.72;52486.81;5049525;28;19981;-60
2021/10/01 00:28:08;;;;;;;;;;;;;;;-144.99;77.96;52460.31;5049046;28;19989;-59
2021/10/01 00:30:34;;;;;;;;;;;;;;;-144.99;77.97;52439.94;5049740;28;20000;-60
2021/10/01 00:33:01;;;;;;;;;;;;;;;-144.99;78.20;52474.59;5049738;28;19973;-60
2021/10/01 00:35:27;;;;;;;;;;;;;;;-144.99;77.44;52488.84;5049396;28;19973;-60
2021/10/01 00:37:53;;;;;;;;;;;;;;;-144.99;77.33;52464.41;5049613;28;19993;-60
2021/10/01 00:40:21;;;;;;;;;;;;;;;-144.99;77.50;52444.03;5049493;28;20064;-59
2021/10/01 00:42:47;;;;;;;;;;;;;;;-144.99;77.06;52456.25;5049265;28;19977;-60
2021/10/01 00:45:14;;;;;;;;;;;;;;;-144.99;76.54;52468.47;5049151;28;20004;-59
2021/10/01 00:47:40;;;;;;;;;;;;;;;-144.99;76.34;52417.53;5049863;28;20021;-59
2021/10/01 00:50:07;;;;;;;;;;;;;;;-144.99;76.03;52476.63;5049385;28;20283;-62
2021/10/01 00:52:33;;;;;;;;;;;;;;;-144.99;76.18;52421.59;5049541;28;20147;-61
2021/10/01 00:55:01;;;;;;;;;;;;;;;-144.99;76.17;52472.56;5048986;28;20092;-62
2021/10/01 00:57:29;;;;;;;;;;;;;;;-144.99;76.29;52435.88;5043725;28;19993;-63
2021/10/01 00:59:55;;;;;;;;;;;;;;;-144.99;75.79;52444.03;5049242;28;19978;-63
2021/10/01 01:02:21;;;;;;;;;;;;;;;-144.99;75.49;52452.16;5049342;28;19974;-68
2021/10/01 01:04:48;;;;;;;;;;;;;;;-144.99;75.90;52484.78;5048919;28;19977;-66
2021/10/01 01:07:18;;;;;;;;;;;;;;;-144.99;75.65;52448.09;5049138;28;20011;-67
2021/10/01 01:09:48;;;;;;;;;;;;;;;-144.99;75.50;52468.47;5049759;28;20072;-66
2021/10/01 01:12:29;;;;;;;;;;;;;;;-144.99;75.40;52464.41;5043542;28;19989;-66
2021/10/01 01:15:01;;;;;;;;;;;;;;;-144.99;75.83;52464.41;5049429;28;20517;-62
2021/10/01 01:17:28;;;;;;;;;;;;;;;-144.99;75.62;52462.34;5048942;28;19993;-61
2021/10/01 01:20:07;;;;;;;;;;;;;;;-144.99;75.99;52446.06;5049385;28;19950;-62
2021/10/01 01:22:39;;;;;;;;;;;;;;;-144.99;76.02;52452.16;5040855;28;19985;-61
2021/10/01 01:25:19;;;;;;;;;;;;;;;-144.99;75.94;52476.63;5038065;28;19977;-61
2021/10/01 01:27:51;;;;;;;;;;;;;;;-144.99;76.33;52431.78;5048863;28;20508;-64
2021/10/01 01:30:20;;;;;;;;;;;;;;;-144.99;76.05;52439.94;5049230;28;20017;-63
2021/10/01 01:32:48;;;;;;;;;;;;;;;-144.99;75.86;52446.06;5048619;28;20281;-63
2021/10/01 01:35:18;;;;;;;;;;;;;;;-144.99;75.78;52444.03;5048957;28;19973;-66
2021/10/01 01:37:46;;;;;;;;;;;;;;;-144.99;75.81;52444.03;5048610;28;20050;-64
2021/10/01 01:40:14;;;;;;;;;;;;;;;-144.99;76.17;52452.16;5050509;28;19989;-64
2021/10/01 01:42:41;;;;;;;;;;;;;;;-144.99;76.00;52492.94;5051899;28;19992;-63
2021/10/01 01:45:08;;;;;;;;;;;;;;;-144.99;75.77;52452.16;5052559;28;19988;-65
2021/10/01 01:47:34;;;;;;;;;;;;;;;-144.99;75.81;52423.63;5052303;28;20004;-65
2021/10/01 01:50:04;;;;;;;;;;;;;;;-144.99;75.45;52435.88;5052707;28;19982;-64
2021/10/01 01:52:30;;;;;;;;;;;;;;;-144.99;75.50;52460.31;5051787;28;20004;-63
2021/10/01 01:54:57;;;;;;;;;;;;;;;-144.99;75.95;52476.63;5052569;28;19977;-64
2021/10/01 01:57:25;;;;;;;;;;;;;;;-144.99;75.71;52450.13;5051327;28;20107;-67
2021/10/01 01:59:51;;;;;;;;;;;;;;;-144.99;75.98;52448.09;5052484;28;19985;-60
2021/10/01 02:02:19;;;;;;;;;;;;;;;-144.99;75.86;52439.94;5052235;28;19981;-60
2021/10/01 02:04:47;;;;;;;;;;;;;;;-144.99;75.83;52501.09;5052223;28;19977;-60
2021/10/01 02:07:17;;;;;;;;;;;;;;;-144.99;75.75;52454.22;5051880;28;19997;-60
2021/10/01 02:09:44;;;;;;;;;;;;;;;-144.99;75.82;52444.03;5052410;28;19981;-60
2021/10/01 02:12:10;;;;;;;;;;;;;;;-144.99;75.70;52476.63;5051278;28;19997;-60
2021/10/01 02:14:40;;;;;;;;;;;;;;;-144.99;75.87;52476.63;5052188;28;19988;-60
2021/10/01 02:17:07;;;;;;;;;;;;;;;-144.99;75.63;52448.09;5052026;28;22146;-59
2021/10/01 02:19:34;;;;;;;;;;;;;;;-144.99;75.67;52441.97;5051910;28;20444;-59
2021/10/01 02:22:02;;;;;;;;;;;;;;;-144.99;75.65;52468.47;5051116;28;19989;-60
2021/10/01 02:24:29;;;;;;;;;;;;;;;-144.99;75.10;52456.25;5051297;28;19985;-60
2021/10/01 02:26:59;;;;;;;;;;;;;;;-144.99;75.30;52460.31;5051596;28;19977;-60
2021/10/01 02:29:28;;;;;;;;;;;;;;;-144.99;74.98;52431.78;5051796;28;19988;-63
2021/10/01 02:31:58;;;;;;;;;;;;;;;-144.99;75.11;52431.78;5051816;28;19997;-64
2021/10/01 02:34:29;;;;;;;;;;;;;;;-144.99;75.18;52464.41;5051450;28;20191;-63
2021/10/01 02:36:56;;;;;;;;;;;;;;;-144.99;75.11;52435.88;5051544;28;19992;-62
2021/10/01 02:39:22;;;;;;;;;;;;;;;-144.99;75.23;52492.94;5051667;28;19981;-61
2021/10/01 02:41:50;;;;;;;;;;;;;;;-144.99;75.29;52460.31;5051585;28;19981;-63
2021/10/01 02:44:16;;;;;;;;;;;;;;;-144.99;75.19;52435.88;5051676;28;19981;-63
2021/10/01 02:46:42;;;;;;;;;;;;;;;-144.99;75.36;52450.13;5052481;28;19981;-65
2021/10/01 02:49:12;;;;;;;;;;;;;;;-144.99;75.58;52468.47;5052109;28;20076;-65
2021/10/01 02:51:42;;;;;;;;;;;;;;;-144.99;75.26;52446.06;5050169;28;20001;-65
2021/10/01 02:54:12;;;;;;;;;;;;;;;-144.99;75.42;52464.41;5051482;28;19985;-66
2021/10/01 02:56:41;;;;;;;;;;;;;;;-144.99;75.23;52423.63;5051044;28;19981;-66
2021/10/01 02:59:11;;;;;;;;;;;;;;;-144.99;75.49;52437.91;5051503;28;20004;-67
2021/10/01 03:01:40;;;;;;;;;;;;;;;-144.99;75.36;52468.47;5050909;28;20073;-66
2021/10/01 03:04:07;;;;;;;;;;;;;;;-144.99;75.26;52425.66;5051139;28;19974;-63
2021/10/01 03:06:35;;;;;;;;;;;;;;;-144.99;75.40;52439.94;5050997;28;19981;-65
2021/10/01 03:09:03;;;;;;;;;;;;;;;-144.99;75.54;52456.25;5051019;28;19997;-66
2021/10/01 03:11:31;;;;;;;;;;;;;;;-144.99;75.24;52456.25;5050805;28;20067;-64
2021/10/01 03:13:58;;;;;;;;;;;;;;;-144.99;75.21;52444.03;5050991;28;20000;-67
2021/10/01 03:16:27;;;;;;;;;;;;;;;-144.99;75.56;52452.16;5050744;28;19985;-65
2021/10/01 03:18:55;;;;;;;;;;;;;;;-144.99;75.37;52460.31;5050942;28;20051;-65
2021/10/01 03:21:22;;;;;;;;;;;;;;;-144.99;74.82;52466.44;5050411;28;19981;-58
2021/10/01 03:23:49;;;;;;;;;;;;;;;-144.99;75.07;52462.34;5064126;22;20007;-77
2021/10/01 03:26:15;;;;;;;;;;;;;;;-144.99;75.21;52476.63;5083164;28;20071;-74
2021/10/01 03:28:42;;;;;;;;;;;;;;;-144.99;75.14;52464.41;5088629;28;19976;-78
2021/10/01 03:31:09;;;;;;;;;;;;;;;-144.99;75.17;52452.16;5090572;28;20326;-77
2021/10/01 03:33:36;;;;;;;;;;;;;;;-144.99;75.37;52431.78;5089880;28;20001;-78
2021/10/01 03:36:03;;;;;;;;;;;;;;;-144.99;75.37;52427.72;5089735;28;20349;-77
2021/10/01 03:38:29;;;;;;;;;;;;;;;-144.99;75.10;52484.78;5090113;28;19988;-77
2021/10/01 03:40:58;;;;;;;;;;;;;;;-144.99;75.01;52499.06;5090206;28;19981;-78
2021/10/01 03:43:26;;;;;;;;;;;;;;;-144.99;75.64;52435.88;5089696;28;19985;-78
2021/10/01 03:45:53;;;;;;;;;;;;;;;-144.99;75.90;52450.13;5090283;28;20002;-78
2021/10/01 03:48:19;;;;;;;;;;;;;;;-144.99;75.78;52464.41;5090215;28;20006;-77
2021/10/01 03:50:47;;;;;;;;;;;;;;;-144.99;76.08;52484.78;5088541;28;19983;-77
2021/10/01 03:53:13;;;;;;;;;;;;;;;-144.99;75.99;52439.94;5077658;28;19995;-75
2021/10/01 03:55:39;;;;;;;;;;;;;;;-144.99;75.95;52472.56;5076833;28;19981;-74
2021/10/01 03:58:06;;;;;;;;;;;;;;;-144.99;76.25;52452.16;5089066;28;19981;-74
2021/10/01 04:00:32;;;;;;;;;;;;;;;-144.99;76.12;52444.03;5089641;28;20335;-74
2021/10/01 04:02:58;;;;;;;;;;;;;;;-144.99;76.11;52472.56;5089159;28;20080;-75
2021/10/01 04:05:25;;;;;;;;;;;;;;;-144.99;76.09;52464.41;5087525;28;20011;-78
2021/10/01 04:07:53;;;;;;;;;;;;;;;-144.99;75.67;52480.72;5089857;28;20024;-77
2021/10/01 04:10:19;;;;;;;;;;;;;;;-144.99;75.91;52448.09;5090189;28;19995;-74
2021/10/01 04:12:45;;;;;;;;;;;;;;;-144.99;76.07;52468.47;5089364;28;19996;-76
2021/10/01 04:15:12;;;;;;;;;;;;;;;-144.99;75.63;52444.03;5089545;28;20004;-76
2021/10/01 04:17:38;;;;;;;;;;;;;;;-144.99;75.81;52464.41;5089626;28;20125;-76
2021/10/01 04:20:05;;;;;;;;;;;;;;;-144.99;75.62;52480.72;5087261;28;20319;-70
2021/10/01 04:22:32;;;;;;;;;;;;;;;-144.99;75.22;52480.72;5088228;28;19987;-69
2021/10/01 04:25:00;;;;;;;;;;;;;;;-144.99;75.83;52441.97;5079617;28;20220;-72
2021/10/01 04:27:26;;;;;;;;;;;;;;;-144.99;76.32;52486.81;5081381;28;20023;-71
2021/10/01 04:29:52;;;;;;;;;;;;;;;-144.99;75.04;52472.56;5088228;28;19988;-70
2021/10/01 04:32:18;;;;;;;;;;;;;;;-144.99;75.45;52448.09;5088695;28;20011;-71
2021/10/01 04:34:58;;;;;;;;;;;;;;;-144.99;74.85;52472.56;5087475;28;19992;-69
2021/10/01 04:37:25;;;;;;;;;;;;;;;-144.99;74.34;52433.81;5088334;28;19988;-71
2021/10/01 04:39:52;;;;;;;;;;;;;;;-144.99;74.31;52460.31;5088694;28;19980;-74
2021/10/01 04:42:20;;;;;;;;;;;;;;;-144.99;74.79;52478.66;5088909;28;20323;-75
2021/10/01 04:44:47;;;;;;;;;;;;;;;-144.99;75.07;52464.41;5088276;28;20023;-75
2021/10/01 04:47:13;;;;;;;;;;;;;;;-144.99;74.67;52460.31;5088403;28;19984;-75
2021/10/01 04:49:39;;;;;;;;;;;;;;;-144.99;74.73;52464.41;5088722;28;19980;-75
2021/10/01 04:52:07;;;;;;;;;;;;;;;-144.99;74.54;52454.22;4033573;28;10022248;-77
2021/10/01 04:54:33;;;;;;;;;;;;;;;-144.99;74.39;52452.16;5076572;28;20513;-74
2021/10/01 04:56:59;;;;;;;;;;;;;;;-144.99;74.69;52476.63;5085159;28;20049;-75
2021/10/01 04:59:29;;;;;;;;;;;;;;;-144.99;75.21;52470.50;5085836;28;19987;-74
2021/10/01 05:01:55;;;;;;;;;;;;;;;-144.99;75.05;52468.47;5081485;28;20046;-73
2021/10/01 05:04:21;;;;;;;;;;;;;;;-144.99;74.07;52492.94;5068256;28;19993;-73
2021/10/01 05:06:48;;;;;;;;;;;;;;;-144.99;74.82;52456.25;5083728;28;19977;-73
2021/10/01 05:09:14;;;;;;;;;;;;;;;-144.99;74.06;52472.56;5086125;28;19988;-75
2021/10/01 05:11:40;;;;;;;;;;;;;;;-144.99;74.40;52464.41;5085749;28;20004;-75
2021/10/01 05:14:07;;;;;;;;;;;;;;;-144.99;74.57;52460.31;5088277;28;20008;-73
2021/10/01 05:16:34;;;;;;;;;;;;;;;-144.99;74.43;52425.66;5090857;28;19991;-72
2021/10/01 05:19:01;;;;;;;;;;;;;;;-144.99;74.32;52464.41;5090903;28;20086;-74
2021/10/01 05:21:27;;;;;;;;;;;;;;;-144.99;74.78;52474.59;5090427;28;20006;-72
2021/10/01 05:23:53;;;;;;;;;;;;;;;-144.99;74.39;52488.84;5090662;28;20005;-72
2021/10/01 05:26:19;;;;;;;;;;;;;;;-144.99;74.24;52452.16;5090658;28;20448;-74
2021/10/01 05:28:46;;;;;;;;;;;;;;;-144.99;74.23;52450.13;5091344;28;19991;-75
2021/10/01 05:31:12;;;;;;;;;;;;;;;-144.99;74.30;52497.00;5090815;28;20439;-73
2021/10/01 05:33:40;;;;;;;;;;;;;;;-144.99;74.32;52439.94;5090514;28;20000;-74
2021/10/01 05:36:06;;;;;;;;;;;;;;;-144.99;74.37;52484.78;5089001;28;20026;-75
2021/10/01 05:38:32;;;;;;;;;;;;;;;-144.99;74.53;52452.16;5090075;28;20083;-76
2021/10/01 05:40:59;;;;;;;;;;;;;;;-144.99;74.25;52501.09;5089632;28;19984;-75
2021/10/01 05:43:25;;;;;;;;;;;;;;;-144.99;74.06;52472.56;5089939;28;19992;-76
2021/10/01 05:45:53;;;;;;;;;;;;;;;-144.99;74.00;52456.25;5089682;28;20042;-75
2021/10/01 05:48:20;;;;;;;;;;;;;;;-144.99;73.98;52476.63;5089817;28;20004;-74
2021/10/01 05:50:53;;;;;;;;;;;;;;;-144.99;74.00;52468.47;5087425;28;19980;-74
2021/10/01 05:53:36;;;;;;;;;;;;;;;-144.99;74.04;52468.47;5072465;28;20087;-74
2021/10/01 05:56:03;;;;;;;;;;;;;;;-144.99;74.94;52460.31;5088487;28;19984;-75
2021/10/01 05:58:29;;;;;;;;;;;;;;;-144.99;74.43;52448.09;5090068;28;20025;-74
2021/10/01 06:00:57;;;;;;;;;;;;;;;-144.99;74.44;52462.34;5089319;28;20334;-74
2021/10/01 06:03:23;;;;;;;;;;;;;;;-144.99;74.46;52476.63;5088819;28;20223;-75
2021/10/01 06:05:51;;;;;;;;;;;;;;;-144.99;74.29;52423.63;5086699;28;20003;-75
2021/10/01 06:08:17;;;;;;;;;;;;;;;-144.99;74.48;52407.31;5088710;28;19981;-75
2021/10/01 06:10:43;;;;;;;;;;;;;;;-144.99;74.43;52480.72;5088773;28;19984;-74
2021/10/01 06:13:10;;;;;;;;;;;;;;;-144.99;74.34;52444.03;5088784;28;19996;-73
2021/10/01 06:15:36;;;;;;;;;;;;;;;-144.99;73.77;52448.09;5088796;28;19987;-77
2021/10/01 06:18:02;;;;;;;;;;;;;;;-144.99;73.84;52415.47;5088547;28;19988;-77
2021/10/01 06:20:29;;;;;;;;;;;;;;;-144.99;73.57;52497.00;5088658;28;20338;-75
2021/10/01 06:22:56;;;;;;;;;;;;;;;-144.99;73.34;52456.25;5087707;28;20010;-75
2021/10/01 06:25:23;;;;;;;;;;;;;;;-144.99;73.74;52446.06;5070525;28;20000;-76
2021/10/01 06:27:50;;;;;;;;;;;;;;;-144.99;73.84;52444.03;5084626;28;20020;-75
2021/10/01 06:30:19;;;;;;;;;;;;;;;-144.99;73.86;52444.03;5088667;28;20371;-78
2021/10/01 06:32:45;;;;;;;;;;;;;;;-144.99;73.17;52464.41;5088214;28;19984;-75
2021/10/01 06:35:12;;;;;;;;;;;;;;;-144.99;73.25;52448.09;5088925;28;20046;-75
2021/10/01 06:37:39;;;;;;;;;;;;;;;-144.99;73.17;52444.03;5088478;28;19991;-75
2021/10/01 06:40:07;;;;;;;;;;;;;;;-144.99;73.03;52452.16;5088249;28;19992;-75
2021/10/01 06:42:34;;;;;;;;;;;;;;;-144.99;72.70;52464.41;5087478;28;19988;-74
2021/10/01 06:45:03;;;;;;;;;;;;;;;-144.99;72.89;52452.16;5087718;28;20427;-76
2021/10/01 06:47:35;;;;;;;;;;;;;;;-144.99;72.61;52427.72;5088037;28;20031;-74
2021/10/01 06:50:09;;;;;;;;;;;;;;;-144.99;72.69;52409.38;5087891;28;20149;-74
2021/10/01 07:23:26;;;;;;;;;;;;;;;-144.99;72.68;52450.13;5087183;28;20072;-73
2021/10/01 08:21:03;;;;;;;;;;;;;;;-144.99;70.91;52448.09;5049406;28;20059;-77
2021/10/01 08:23:29;;;;;;;;;;;;;;;-144.99;70.36;52448.09;5081995;28;19980;-76
2021/10/01 08:25:55;;;;;;;;;;;;;;;-144.99;70.17;52407.31;5068577;28;19992;-75
2021/10/01 08:28:22;;;;;;;;;;;;;;;-144.99;70.21;52423.63;5086615;28;19980;-73
2021/10/01 08:30:48;;;;;;;;;;;;;;;-144.99;69.91;52431.78;5086374;28;19988;-74
2021/10/01 08:33:16;;;;;;;;;;;;;;;-144.99;69.87;52439.94;5087184;28;20007;-76
2021/10/01 08:35:42;;;;;;;;;;;;;;;-144.99;69.66;52419.56;5085881;28;20004;-75
2021/10/01 08:38:08;;;;;;;;;;;;;;;-144.99;69.55;52378.78;5086520;28;19985;-75
2021/10/01 08:40:35;;;;;;;;;;;;;;;-144.99;68.80;52403.25;5086355;28;19995;-77
2021/10/01 08:43:01;;;;;;;;;;;;;;;-144.99;68.50;52407.31;5085818;28;19988;-75
2021/10/01 08:45:28;;;;;;;;;;;;;;;-144.99;68.20;52431.78;5086057;28;20004;-74
2021/10/01 08:47:57;;;;;;;;;;;;;;;-144.99;67.37;52364.53;5086309;28;19984;-73
2021/10/01 08:50:25;;;;;;;;;;;;;;;-144.99;65.45;52368.59;5086313;28;20004;-75
2021/10/01 08:52:52;;;;;;;;;;;;;;;-144.99;65.37;52370.63;5085152;28;19989;-75
2021/10/01 08:55:20;;;;;;;;;;;;;;;-144.99;64.26;52374.72;5085599;28;20005;-76
2021/10/01 08:57:46;;;;;;;;;;;;;;;-144.99;64.66;52358.41;5085803;28;19980;-75
2021/10/01 09:00:16;;;;;;;;;;;;;;;-144.99;64.82;52395.09;5085796;28;19984;-75
2021/10/01 09:02:42;;;;;;;;;;;;;;;-144.99;64.19;52360.44;5075821;28;20059;-74
2021/10/01 09:05:09;;;;;;;;;;;;;;;-144.99;64.32;52382.88;5075002;28;20060;-76
2021/10/01 09:07:36;;;;;;;;;;;;;;;-144.99;63.62;52386.94;5085638;28;19977;-74
2021/10/01 09:10:08;;;;;;;;;;;;;;;-144.99;63.06;52360.44;5086091;28;19991;-76
2021/10/01 09:12:34;;;;;;;;;;;;;;;-144.99;62.58;52427.72;5086086;28;20414;-77
2021/10/01 09:15:00;;;;;;;;;;;;;;;-144.99;62.38;52380.84;5085717;28;20027;-78
2021/10/01 09:17:27;;;;;;;;;;;;;;;-144.99;61.77;52366.56;5086174;28;19988;-77
2021/10/01 09:19:55;;;;;;;;;;;;;;;-144.99;60.19;52325.81;5085930;28;19977;-76
2021/10/01 09:22:25;;;;;;;;;;;;;;;-144.99;59.83;52366.56;5086176;28;19984;-77
2021/10/01 09:25:07;;;;;;;;;;;;;;;-144.99;59.78;52362.50;5085659;28;20016;-77
2021/10/01 09:27:34;;;;;;;;;;;;;;;-144.99;59.80;52378.78;5085971;28;19984;-75
2021/10/01 09:30:00;;;;;;;;;;;;;;;-144.99;58.20;52329.88;5086923;28;19988;-75
2021/10/01 09:32:27;;;;;;;;;;;;;;;-144.99;58.27;52342.09;5088075;28;20034;-78
2021/10/01 09:34:53;;;;;;;;;;;;;;;-144.99;57.84;52338.03;5086681;28;20027;-77
2021/10/01 09:37:21;;;;;;;;;;;;;;;-144.99;56.92;52313.56;5085971;28;19984;-76
2021/10/01 09:39:51;;;;;;;;;;;;;;;-144.99;57.29;52299.31;5086424;28;20028;-76
2021/10/01 09:42:20;;;;;;;;;;;;;;;-144.99;57.30;52309.50;5085257;28;20346;-79
2021/10/01 09:44:48;;;;;;;;;;;;;;;-144.99;56.94;52309.50;5085665;28;20466;-77
2021/10/01 09:47:14;;;;;;;;;;;;;;;-144.99;57.16;52333.94;5085392;28;19984;-76
2021/10/01 09:49:41;;;;;;;;;;;;;;;-144.99;55.51;52303.38;5085881;28;20477;-76
2021/10/01 09:52:07;;;;;;;;;;;;;;;-144.99;55.64;52305.41;5076899;28;19977;-76
2021/10/01 09:54:34;;;;;;;;;;;;;;;-144.99;55.09;52329.88;5080604;28;19996;-77
2021/10/01 09:57:01;;;;;;;;;;;;;;;-144.99;56.28;52309.50;5085036;28;20418;-77
2021/10/01 09:59:30;;;;;;;;;;;;;;;-144.99;56.00;52325.81;5085735;28;19984;-77
2021/10/01 10:02:02;;;;;;;;;;;;;;;-144.99;55.20;52319.69;5088768;28;19999;-77
2021/10/01 10:04:29;;;;;;;;;;;;;;;-144.99;55.95;52348.22;5084864;28;20545;-77
2021/10/01 10:06:55;;;;;;;;;;;;;;;-144.99;55.22;52325.81;5078338;28;19988;-77
2021/10/01 10:09:32;;;;;;;;;;;;;;;-144.99;55.15;52264.66;5080375;28;19991;-77
2021/10/01 10:11:58;;;;;;;;;;;;;;;-144.99;54.38;52280.97;5087873;28;20009;-78
2021/10/01 10:14:25;;;;;;;;;;;;;;;-144.99;53.20;52219.81;5089012;28;20374;-77
2021/10/01 10:16:53;;;;;;;;;;;;;;;-144.99;53.66;52232.03;5088502;28;19984;-77
2021/10/01 10:19:21;;;;;;;;;;;;;;;-144.99;54.18;52256.50;5088830;28;19949;-77
2021/10/01 10:21:48;;;;;;;;;;;;;;;-144.99;53.94;52215.75;5088495;28;19980;-77
2021/10/01 10:24:15;;;;;;;;;;;;;;;-144.99;51.93;52183.13;5077920;28;20073;-77
2021/10/01 10:26:44;;;;;;;;;;;;;;;-144.99;52.32;52211.66;5087844;28;19988;-78
2021/10/01 10:29:12;;;;;;;;;;;;;;;-144.99;51.61;52185.16;5088854;28;19993;-77
2021/10/01 10:31:40;;;;;;;;;;;;;;;-144.99;51.00;52187.19;5089125;28;19984;-78
2021/10/01 10:34:17;;;;;;;;;;;;;;;-144.99;50.60;52183.13;5088493;28;20086;-77
2021/10/01 10:36:45;;;;;;;;;;;;;;;-144.99;50.36;52187.19;5078628;28;19990;-76
2021/10/01 10:39:32;;;;;;;;;;;;;;;-144.99;50.88;52179.06;5088626;28;20066;-78
2021/10/01 10:42:05;;;;;;;;;;;;;;;-144.99;50.18;52130.13;5088173;28;19980;-77
2021/10/01 10:44:40;;;;;;;;;;;;;;;-144.99;50.33;52166.81;5087994;28;20004;-76
2021/10/01 10:47:07;;;;;;;;;;;;;;;-144.99;49.53;52138.28;5088408;28;20080;-75
2021/10/01 10:49:34;;;;;;;;;;;;;;;-144.99;49.52;52154.59;5088140;28;20004;-76
2021/10/01 10:52:04;;;;;;;;;;;;;;;-144.99;50.19;52187.19;5088042;28;20056;-76
2021/10/01 10:54:31;;;;;;;;;;;;;;;-144.99;52.19;52323.75;5087940;28;20066;-76
2021/10/01 10:57:16;;;;;;;;;;;;;;;-144.99;53.98;52342.09;5087773;28;20367;-78
2021/10/01 10:59:42;;;;;;;;;;;;;;;-144.99;54.67;52248.34;5088148;28;19988;-74
2021/10/01 11:02:18;;;;;;;;;;;;;;;-144.99;54.56;52317.66;5082236;28;19980;-75
2021/10/01 11:04:50;;;;;;;;;;;;;;;-144.99;55.45;52340.06;5072081;28;20047;-76
2021/10/01 11:07:35;;;;;;;;;;;;;;;-144.99;55.71;52278.91;5081514;28;19968;-78
2021/10/01 11:10:16;;;;;;;;;;;;;;;-144.99;55.17;52272.81;5088126;28;19985;-78
2021/10/01 11:12:43;;;;;;;;;;;;;;;-144.99;56.34;52354.34;5085739;28;19981;-77
2021/10/01 11:15:13;;;;;;;;;;;;;;;-144.99;55.80;52297.25;5087523;28;20004;-77
2021/10/01 11:17:40;;;;;;;;;;;;;;;-144.99;54.68;52191.28;5087655;28;20353;-77
2021/10/01 11:20:08;;;;;;;;;;;;;;;-144.99;52.85;52207.59;5087790;28;19966;-76
2021/10/01 11:22:36;;;;;;;;;;;;;;;-144.99;51.79;52201.47;5087784;28;19992;-78
2021/10/01 11:25:11;;;;;;;;;;;;;;;-144.99;52.09;52297.25;5087569;28;20079;-77
2021/10/01 11:27:46;;;;;;;;;;;;;;;-144.99;53.31;52309.50;5087449;28;20456;-77
2021/10/01 11:30:13;;;;;;;;;;;;;;;-144.99;54.44;52276.88;5088196;28;20420;-76
2021/10/01 11:32:39;;;;;;;;;;;;;;;-144.99;53.74;52223.88;5088134;28;20075;-76
2021/10/01 11:35:07;;;;;;;;;;;;;;;-144.99;52.21;52199.44;5088003;28;19999;-76
2021/10/01 11:37:35;;;;;;;;;;;;;;;-144.99;51.27;52172.94;5087316;28;20032;-77
2021/10/01 11:40:04;;;;;;;;;;;;;;;-144.99;50.38;52113.84;5087628;28;20004;-78
2021/10/01 11:42:32;;;;;;;;;;;;;;;-144.99;49.48;52158.66;5087498;28;20063;-77
2021/10/01 11:45:05;;;;;;;;;;;;;;;-144.99;50.36;52268.72;5089083;28;19992;-79
2021/10/01 11:47:32;;;;;;;;;;;;;;;-144.99;51.72;52199.44;5087865;28;19984;-77
2021/10/01 11:50:00;;;;;;;;;;;;;;;-144.99;50.71;52146.44;5086932;28;19980;-76
2021/10/01 11:52:27;;;;;;;;;;;;;;;-144.99;49.96;52160.72;5070910;28;20388;-77
2021/10/01 11:54:56;;;;;;;;;;;;;;;-144.99;49.22;52130.13;5086416;28;20007;-77
2021/10/01 11:57:23;;;;;;;;;;;;;;;-144.99;48.85;52126.06;5087105;28;19980;-77
2021/10/01 11:59:51;;;;;;;;;;;;;;;-144.99;50.07;52252.44;5087211;28;19988;-76
2021/10/01 12:02:30;;;;;;;;;;;;;;;-144.99;52.21;52305.41;5087909;28;19980;-76
2021/10/01 12:04:56;;;;;;;;;;;;;;;-144.99;54.20;52325.81;5084994;28;20413;-76
2021/10/01 12:07:22;;;;;;;;;;;;;;;-144.99;55.46;52362.50;5087321;28;19984;-77
2021/10/01 12:10:03;;;;;;;;;;;;;;;-144.99;56.22;52378.78;5087003;28;20319;-76
2021/10/01 12:12:29;;;;;;;;;;;;;;;-144.99;56.37;52366.56;5076702;28;19980;-76
2021/10/01 12:14:56;;;;;;;;;;;;;;;-144.99;56.27;52266.69;5086305;28;20011;-76
2021/10/01 12:17:22;;;;;;;;;;;;;;;-144.99;55.61;52342.09;5087366;28;20342;-75
2021/10/01 12:19:48;;;;;;;;;;;;;;;-144.99;55.55;52244.28;5087221;28;19988;-77
2021/10/01 12:22:16;;;;;;;;;;;;;;;-144.99;54.23;52242.22;5086954;28;20472;-75
2021/10/01 12:24:47;;;;;;;;;;;;;;;-144.99;53.73;52311.53;5073981;28;20518;-76
2021/10/01 12:27:16;;;;;;;;;;;;;;;-144.99;54.89;52309.50;5077946;28;19952;-75
2021/10/01 12:29:44;;;;;;;;;;;;;;;-144.99;55.77;52295.22;5086132;28;20501;-76
2021/10/01 12:32:10;;;;;;;;;;;;;;;-144.99;55.88;52301.34;5086885;28;20414;-76
2021/10/01 12:34:41;;;;;;;;;;;;;;;-144.99;55.09;52260.56;5086109;28;20153;-76
2021/10/01 12:37:08;;;;;;;;;;;;;;;-144.99;53.80;52268.72;5086108;28;20012;-76
2021/10/01 12:39:36;;;;;;;;;;;;;;;-144.99;52.17;52285.03;5086445;28;19992;-76
2021/10/01 12:42:03;;;;;;;;;;;;;;;-144.99;53.13;52223.88;5085692;28;19992;-76
2021/10/01 12:44:32;;;;;;;;;;;;;;;-144.99;52.43;52077.16;5086549;28;20427;-78
2021/10/01 12:47:10;;;;;;;;;;;;;;;-144.99;49.95;52126.06;5086496;28;20083;-77
2021/10/01 12:49:37;;;;;;;;;;;;;;;-144.99;49.09;52236.13;5086770;28;20349;-76
2021/10/01 12:52:05;;;;;;;;;;;;;;;-144.99;50.02;52258.53;5085696;28;20384;-75
2021/10/01 12:54:32;;;;;;;;;;;;;;;-144.99;50.89;52244.28;5076690;28;20008;-75
2021/10/01 12:57:08;;;;;;;;;;;;;;;-144.99;51.25;52268.72;5087184;28;19986;-78
2021/10/01 12:59:40;;;;;;;;;;;;;;;-144.99;51.35;52142.38;5086269;28;19984;-76
2021/10/01 13:02:07;;;;;;;;;;;;;;;-144.99;49.87;52089.38;5083008;28;19980;-75
2021/10/01 13:04:44;;;;;;;;;;;;;;;-144.99;49.12;52195.34;5072952;28;20141;-78
2021/10/01 13:07:20;;;;;;;;;;;;;;;-144.99;48.64;52126.06;5087681;28;20056;-75
2021/10/01 13:09:46;;;;;;;;;;;;;;;-144.99;49.42;52219.81;5085851;28;20423;-74
2021/10/01 13:12:25;;;;;;;;;;;;;;;-144.99;50.47;52240.19;5083046;28;20036;-75
2021/10/01 13:15:06;;;;;;;;;;;;;;;-144.99;51.07;52236.13;5085283;28;20012;-76
2021/10/01 13:17:33;;;;;;;;;;;;;;;-144.99;52.18;52285.03;5086605;28;20066;-76
2021/10/01 13:19:59;;;;;;;;;;;;;;;-144.99;52.85;52203.50;5080876;28;20079;-77
2021/10/01 13:22:26;;;;;;;;;;;;;;;-144.99;51.86;52166.81;5085235;28;20208;-76
2021/10/01 13:24:55;;;;;;;;;;;;;;;-144.99;50.48;52109.75;5083600;28;20023;-77
2021/10/01 13:27:21;;;;;;;;;;;;;;;-144.99;49.93;52154.59;5086223;28;19984;-77
2021/10/01 13:29:47;;;;;;;;;;;;;;;-144.99;49.83;52183.13;5087259;28;20367;-76
2021/10/01 13:32:15;;;;;;;;;;;;;;;-144.99;50.52;52248.34;5087201;28;19981;-77
2021/10/01 13:34:41;;;;;;;;;;;;;;;-144.99;49.90;52189.25;5086399;28;20237;-78
2021/10/01 13:37:07;;;;;;;;;;;;;;;-144.99;49.75;52191.28;5089841;28;19980;-76
2021/10/01 13:39:34;;;;;;;;;;;;;;;-144.99;49.41;52223.88;5090257;28;19985;-75
2021/10/01 13:42:00;;;;;;;;;;;;;;;-144.99;49.90;52166.81;5084162;28;20408;-76
2021/10/01 13:44:26;;;;;;;;;;;;;;;-144.99;50.60;52223.88;5087117;28;20000;-76
2021/10/01 13:46:53;;;;;;;;;;;;;;;-144.99;52.16;52317.66;5088550;28;19980;-75
2021/10/01 13:49:20;;;;;;;;;;;;;;;-144.99;52.66;52276.88;5090401;28;20303;-74
2021/10/01 13:51:47;;;;;;;;;;;;;;;-144.99;53.43;52333.94;5080971;28;19980;-77
2021/10/01 13:54:13;;;;;;;;;;;;;;;-144.99;53.74;52293.19;5085025;28;20377;-76
2021/10/01 13:56:39;;;;;;;;;;;;;;;-144.99;54.54;52338.03;5085114;28;19997;-76